sensor_id;sensor_type;location;lat;lon;timestamp;pressure;altitude;pressure_sealevel;temperature;humidity
75312;BME280;63906;55.686;37.532;2023-03-25T00:01:12;98330.41;;;5.66;83.97
75312;BME280;63906;55.686;37.532;2023-03-25T00:06:15;98331.13;;;5.53;82.91
75312;BME280;63906;55.686;37.532;2023-03-25T00:11:16;98308.94;;;5.43;83.58
75312;BME280;63906;55.686;37.532;2023-03-25T00:16:16;98324.59;;;5.43;83.58
75312;BME280;63906;55.686;37.532;2023-03-25T00:21:18;98309.09;;;5.34;83.60
75312;BME280;63906;55.686;37.532;2023-03-25T00:26:18;98275.50;;;5.25;83.75
75312;BME280;63906;55.686;37.532;2023-03-25T00:31:19;98288.44;;;5.39;84.03
75312;BME280;63906;55.686;37.532;2023-03-25T00:36:20;98270.06;;;5.48;84.26
75312;BME280;63906;55.686;37.532;2023-03-25T00:41:23;98255.09;;;5.63;83.88
75312;BME280;63906;55.686;37.532;2023-03-25T00:46:29;98271.81;;;5.75;82.89
75312;BME280;63906;55.686;37.532;2023-03-25T00:51:30;98238.91;;;5.81;83.34
75312;BME280;63906;55.686;37.532;2023-03-25T00:56:32;98269.38;;;5.67;81.25
75312;BME280;63906;55.686;37.532;2023-03-25T01:01:33;98256.03;;;5.90;83.44
75312;BME280;63906;55.686;37.532;2023-03-25T01:06:39;98261.53;;;6.02;82.09
75312;BME280;63906;55.686;37.532;2023-03-25T01:11:45;98236.06;;;5.76;80.48
75312;BME280;63906;55.686;37.532;2023-03-25T01:16:46;98245.78;;;6.23;83.40
75312;BME280;63906;55.686;37.532;2023-03-25T01:21:47;98216.03;;;6.24;82.90
75312;BME280;63906;55.686;37.532;2023-03-25T01:26:48;98237.38;;;6.34;79.39
75312;BME280;63906;55.686;37.532;2023-03-25T01:31:49;98233.56;;;6.43;79.38
75312;BME280;63906;55.686;37.532;2023-03-25T01:36:49;98197.53;;;6.32;81.51
75312;BME280;63906;55.686;37.532;2023-03-25T01:41:50;98191.38;;;6.46;80.12
75312;BME280;63906;55.686;37.532;2023-03-25T01:46:51;98198.59;;;6.58;82.21
75312;BME280;63906;55.686;37.532;2023-03-25T01:51:54;98154.16;;;6.44;81.71
75312;BME280;63906;55.686;37.532;2023-03-25T01:56:56;98164.00;;;6.49;80.43
75312;BME280;63906;55.686;37.532;2023-03-25T02:01:59;98160.22;;;6.65;81.17
75312;BME280;63906;55.686;37.532;2023-03-25T02:07:01;98149.72;;;6.52;79.05
75312;BME280;63906;55.686;37.532;2023-03-25T02:12:02;98147.09;;;6.52;79.45
75312;BME280;63906;55.686;37.532;2023-03-25T02:22:37;98176.50;;;6.73;79.96
75312;BME280;63906;55.686;37.532;2023-03-25T02:38:17;98109.72;;;6.44;80.13
75312;BME280;63906;55.686;37.532;2023-03-25T02:43:31;98129.84;;;6.77;80.08
75312;BME280;63906;55.686;37.532;2023-03-25T02:48:43;98117.16;;;6.87;78.85
75312;BME280;63906;55.686;37.532;2023-03-25T02:53:49;98101.63;;;6.99;79.39
75312;BME280;63906;55.686;37.532;2023-03-25T02:58:54;98115.25;;;7.34;78.48
75312;BME280;63906;55.686;37.532;2023-03-25T03:03:56;98076.47;;;7.05;75.57
75312;BME280;63906;55.686;37.532;2023-03-25T03:24:46;98062.34;;;7.64;77.40
75312;BME280;63906;55.686;37.532;2023-03-25T03:29:52;98049.38;;;7.82;76.83
75312;BME280;63906;55.686;37.532;2023-03-25T03:35:02;98040.56;;;7.70;74.26
75312;BME280;63906;55.686;37.532;2023-03-25T03:40:10;98032.22;;;7.86;74.49
75312;BME280;63906;55.686;37.532;2023-03-25T03:45:21;98021.38;;;8.14;77.45
75312;BME280;63906;55.686;37.532;2023-03-25T03:50:27;98028.44;;;8.32;75.69
75312;BME280;63906;55.686;37.532;2023-03-25T03:55:33;98005.69;;;8.07;74.28
75312;BME280;63906;55.686;37.532;2023-03-25T04:00:42;97997.00;;;8.32;75.79
75312;BME280;63906;55.686;37.532;2023-03-25T04:05:53;97983.47;;;8.35;73.14
75312;BME280;63906;55.686;37.532;2023-03-25T04:11:03;98005.94;;;8.49;74.76
75312;BME280;63906;55.686;37.532;2023-03-25T04:16:07;97978.06;;;8.55;74.58
75312;BME280;63906;55.686;37.532;2023-03-25T04:21:08;97951.22;;;8.34;72.34
75312;BME280;63906;55.686;37.532;2023-03-25T04:26:09;97954.97;;;8.45;71.25
75312;BME280;63906;55.686;37.532;2023-03-25T04:31:14;97937.50;;;8.57;72.71
75312;BME280;63906;55.686;37.532;2023-03-25T04:36:15;97929.91;;;8.68;74.58
75312;BME280;63906;55.686;37.532;2023-03-25T04:41:16;97937.78;;;8.68;75.61
75312;BME280;63906;55.686;37.532;2023-03-25T04:46:17;97923.22;;;8.53;71.28
75312;BME280;63906;55.686;37.532;2023-03-25T04:51:18;97914.31;;;8.73;72.37
75312;BME280;63906;55.686;37.532;2023-03-25T04:56:18;97907.44;;;9.08;72.48
75312;BME280;63906;55.686;37.532;2023-03-25T05:01:23;97866.38;;;8.84;71.49
75312;BME280;63906;55.686;37.532;2023-03-25T05:06:33;97902.50;;;9.42;71.16
75312;BME280;63906;55.686;37.532;2023-03-25T05:11:35;97886.69;;;9.18;71.98
75312;BME280;63906;55.686;37.532;2023-03-25T05:16:37;97900.28;;;9.15;72.13
75312;BME280;63906;55.686;37.532;2023-03-25T05:21:38;97901.25;;;9.03;72.31
75312;BME280;63906;55.686;37.532;2023-03-25T05:26:41;97924.41;;;8.76;72.61
75312;BME280;63906;55.686;37.532;2023-03-25T05:31:44;97930.63;;;8.56;73.42
75312;BME280;63906;55.686;37.532;2023-03-25T05:36:45;97926.25;;;8.87;72.88
75312;BME280;63906;55.686;37.532;2023-03-25T05:41:45;97911.22;;;8.46;71.69
75312;BME280;63906;55.686;37.532;2023-03-25T05:46:46;97902.16;;;8.78;73.46
75312;BME280;63906;55.686;37.532;2023-03-25T05:51:46;97884.88;;;8.89;74.22
75312;BME280;63906;55.686;37.532;2023-03-25T05:56:49;97896.75;;;9.22;74.28
75312;BME280;63906;55.686;37.532;2023-03-25T06:01:50;97888.25;;;9.38;74.67
75312;BME280;63906;55.686;37.532;2023-03-25T06:06:50;97914.00;;;9.71;72.45
75312;BME280;63906;55.686;37.532;2023-03-25T06:11:51;97900.56;;;10.03;71.56
75312;BME280;63906;55.686;37.532;2023-03-25T06:16:52;97876.31;;;10.36;71.59
75312;BME280;63906;55.686;37.532;2023-03-25T06:21:53;97880.47;;;10.72;69.18
75312;BME280;63906;55.686;37.532;2023-03-25T06:26:54;97865.63;;;10.66;71.21
75312;BME280;63906;55.686;37.532;2023-03-25T06:31:54;97870.16;;;9.95;68.85
75312;BME280;63906;55.686;37.532;2023-03-25T06:36:55;97877.56;;;10.21;71.51
75312;BME280;63906;55.686;37.532;2023-03-25T06:41:57;97874.94;;;9.98;71.88
75312;BME280;63906;55.686;37.532;2023-03-25T06:46:57;97877.81;;;9.85;73.47
75312;BME280;63906;55.686;37.532;2023-03-25T06:51:59;97847.69;;;9.34;76.37
75312;BME280;63906;55.686;37.532;2023-03-25T06:57:00;97879.03;;;9.17;77.44
75312;BME280;63906;55.686;37.532;2023-03-25T07:02:00;97877.44;;;8.86;78.86
75312;BME280;63906;55.686;37.532;2023-03-25T07:07:01;97877.03;;;8.52;79.86
75312;BME280;63906;55.686;37.532;2023-03-25T07:12:01;97867.84;;;8.43;80.56
75312;BME280;63906;55.686;37.532;2023-03-25T07:17:02;97856.66;;;8.36;80.70
75312;BME280;63906;55.686;37.532;2023-03-25T07:22:02;97878.34;;;8.61;81.52
75312;BME280;63906;55.686;37.532;2023-03-25T07:27:03;97875.56;;;8.75;81.14
75312;BME280;63906;55.686;37.532;2023-03-25T07:32:04;97851.69;;;8.46;80.84
75312;BME280;63906;55.686;37.532;2023-03-25T07:37:05;97843.09;;;8.57;80.98
75312;BME280;63906;55.686;37.532;2023-03-25T07:42:07;97870.41;;;8.98;80.86
75312;BME280;63906;55.686;37.532;2023-03-25T07:47:08;97859.06;;;8.86;81.05
75312;BME280;63906;55.686;37.532;2023-03-25T07:52:08;97874.06;;;8.97;80.27
75312;BME280;63906;55.686;37.532;2023-03-25T07:57:08;97875.97;;;8.90;80.76
75312;BME280;63906;55.686;37.532;2023-03-25T08:02:12;97856.44;;;8.86;81.33
75312;BME280;63906;55.686;37.532;2023-03-25T08:07:14;97841.94;;;8.53;80.56
75312;BME280;63906;55.686;37.532;2023-03-25T08:12:14;97880.72;;;8.81;80.24
75312;BME280;63906;55.686;37.532;2023-03-25T08:17:15;97900.53;;;8.96;80.21
75312;BME280;63906;55.686;37.532;2023-03-25T08:22:16;97915.59;;;9.00;81.62
75312;BME280;63906;55.686;37.532;2023-03-25T08:27:16;97897.19;;;8.88;81.35
75312;BME280;63906;55.686;37.532;2023-03-25T08:32:17;97908.84;;;8.74;81.95
75312;BME280;63906;55.686;37.532;2023-03-25T08:37:17;97911.84;;;8.59;82.40
75312;BME280;63906;55.686;37.532;2023-03-25T08:42:18;97878.34;;;8.61;82.61
75312;BME280;63906;55.686;37.532;2023-03-25T08:47:18;97915.34;;;8.90;83.55
75312;BME280;63906;55.686;37.532;2023-03-25T08:52:19;97876.59;;;8.55;82.14
75312;BME280;63906;55.686;37.532;2023-03-25T08:57:20;97916.22;;;8.84;82.91
75312;BME280;63906;55.686;37.532;2023-03-25T09:02:20;97917.19;;;8.71;82.61
75312;BME280;63906;55.686;37.532;2023-03-25T09:07:21;97909.88;;;8.73;83.27
75312;BME280;63906;55.686;37.532;2023-03-25T09:12:22;97905.47;;;9.04;83.69
75312;BME280;63906;55.686;37.532;2023-03-25T09:17:23;97899.38;;;9.22;83.13
75312;BME280;63906;55.686;37.532;2023-03-25T09:22:23;97914.50;;;9.38;82.74
75312;BME280;63906;55.686;37.532;2023-03-25T09:27:24;97884.28;;;9.17;82.40
75312;BME280;63906;55.686;37.532;2023-03-25T09:32:24;97911.16;;;9.31;82.35
75312;BME280;63906;55.686;37.532;2023-03-25T09:37:25;97922.38;;;9.38;83.08
75312;BME280;63906;55.686;37.532;2023-03-25T09:43:19;97939.16;;;9.79;80.86
75312;BME280;63906;55.686;37.532;2023-03-25T10:14:23;97929.47;;;10.49;77.91
75312;BME280;63906;55.686;37.532;2023-03-25T10:29:55;97924.69;;;10.98;75.76
75312;BME280;63906;55.686;37.532;2023-03-25T10:35:01;97946.09;;;11.02;75.67
75312;BME280;63906;55.686;37.532;2023-03-25T10:45:22;97941.91;;;10.77;77.54
75312;BME280;63906;55.686;37.532;2023-03-25T10:50:24;97947.41;;;10.88;78.14
75312;BME280;63906;55.686;37.532;2023-03-25T10:55:29;97919.34;;;10.93;77.19
75312;BME280;63906;55.686;37.532;2023-03-25T11:00:31;97935.44;;;10.97;76.84
75312;BME280;63906;55.686;37.532;2023-03-25T11:05:33;97938.25;;;11.19;77.60
75312;BME280;63906;55.686;37.532;2023-03-25T11:10:34;97939.84;;;11.20;76.37
75312;BME280;63906;55.686;37.532;2023-03-25T11:15:37;97943.78;;;11.05;76.42
75312;BME280;63906;55.686;37.532;2023-03-25T11:20:44;97947.38;;;11.28;76.16
75312;BME280;63906;55.686;37.532;2023-03-25T11:25:45;97944.31;;;11.19;76.06
75312;BME280;63906;55.686;37.532;2023-03-25T11:31:05;97943.78;;;11.05;75.42
75312;BME280;63906;55.686;37.532;2023-03-25T11:36:11;97932.59;;;11.27;76.45
75312;BME280;63906;55.686;37.532;2023-03-25T11:41:13;97925.97;;;11.24;76.33
75312;BME280;63906;55.686;37.532;2023-03-25T11:46:15;97943.84;;;11.22;77.17
75312;BME280;63906;55.686;37.532;2023-03-25T11:51:25;97951.72;;;10.94;76.31
75312;BME280;63906;55.686;37.532;2023-03-25T11:56:38;97934.63;;;11.37;75.17
75312;BME280;63906;55.686;37.532;2023-03-25T12:06:56;97964.72;;;11.12;76.58
75312;BME280;63906;55.686;37.532;2023-03-25T12:17:22;97956.38;;;11.03;76.03
75312;BME280;63906;55.686;37.532;2023-03-25T12:23:09;97960.44;;;10.83;76.67
75312;BME280;63906;55.686;37.532;2023-03-25T12:54:20;97960.97;;;11.37;75.08
75312;BME280;63906;55.686;37.532;2023-03-25T13:10:18;97922.31;;;11.25;75.68
75312;BME280;63906;55.686;37.532;2023-03-25T13:20:26;97933.19;;;11.46;74.10
75312;BME280;63906;55.686;37.532;2023-03-25T13:25:33;97933.09;;;11.41;74.05
75312;BME280;63906;55.686;37.532;2023-03-25T13:30:41;97932.00;;;11.37;74.07
75312;BME280;63906;55.686;37.532;2023-03-25T13:36:10;97926.94;;;11.35;74.79
75312;BME280;63906;55.686;37.532;2023-03-25T13:41:18;97922.97;;;11.32;74.20
75312;BME280;63906;55.686;37.532;2023-03-25T13:46:28;97936.78;;;11.40;74.75
75312;BME280;63906;55.686;37.532;2023-03-25T13:51:31;97947.06;;;11.41;74.84
75312;BME280;63906;55.686;37.532;2023-03-25T14:02:37;97958.59;;;11.52;73.10
75312;BME280;63906;55.686;37.532;2023-03-25T14:07:52;97953.34;;;11.52;74.72
75312;BME280;63906;55.686;37.532;2023-03-25T14:12:59;97950.50;;;11.42;74.72
75312;BME280;63906;55.686;37.532;2023-03-25T14:18:01;97924.38;;;10.95;74.70
75312;BME280;63906;55.686;37.532;2023-03-25T14:23:06;97929.34;;;11.08;75.93
75312;BME280;63906;55.686;37.532;2023-03-25T14:28:10;97950.78;;;11.00;76.36
75312;BME280;63906;55.686;37.532;2023-03-25T14:33:11;97942.34;;;10.86;76.49
75312;BME280;63906;55.686;37.532;2023-03-25T14:43:25;97950.78;;;11.00;76.30
75312;BME280;63906;55.686;37.532;2023-03-25T14:48:34;97948.78;;;10.78;75.90
75312;BME280;63906;55.686;37.532;2023-03-25T14:53:37;97970.84;;;10.89;76.91
75312;BME280;63906;55.686;37.532;2023-03-25T14:58:38;97955.78;;;10.61;76.90
75312;BME280;63906;55.686;37.532;2023-03-25T15:03:41;97950.88;;;10.53;75.92
75312;BME280;63906;55.686;37.532;2023-03-25T15:08:53;97954.06;;;10.55;77.83
75312;BME280;63906;55.686;37.532;2023-03-25T15:13:59;97960.94;;;10.56;77.71
75312;BME280;63906;55.686;37.532;2023-03-25T15:19:10;97971.22;;;10.69;77.32
75312;BME280;63906;55.686;37.532;2023-03-25T15:24:12;97980.72;;;10.47;77.22
75312;BME280;63906;55.686;37.532;2023-03-25T15:34:45;97983.94;;;10.26;77.58
75312;BME280;63906;55.686;37.532;2023-03-25T15:40:01;98006.91;;;10.42;79.42
75312;BME280;63906;55.686;37.532;2023-03-25T15:45:45;98007.94;;;10.41;79.31
75312;BME280;63906;55.686;37.532;2023-03-25T15:56:21;98018.75;;;10.09;78.83
75312;BME280;63906;55.686;37.532;2023-03-25T16:01:27;97996.31;;;9.95;80.00
75312;BME280;63906;55.686;37.532;2023-03-25T16:06:30;97975.59;;;9.87;79.17
75312;BME280;63906;55.686;37.532;2023-03-25T16:11:34;98021.00;;;9.94;80.17
75312;BME280;63906;55.686;37.532;2023-03-25T16:16:36;98009.66;;;9.82;80.32
75312;BME280;63906;55.686;37.532;2023-03-25T16:21:38;98034.16;;;9.94;79.10
75312;BME280;63906;55.686;37.532;2023-03-25T16:26:44;98024.03;;;9.79;80.34
75312;BME280;63906;55.686;37.532;2023-03-25T16:31:57;98024.22;;;9.66;80.71
75312;BME280;63906;55.686;37.532;2023-03-25T16:36:58;98015.81;;;9.46;81.41
75312;BME280;63906;55.686;37.532;2023-03-25T16:42:02;98032.78;;;9.43;81.18
75312;BME280;63906;55.686;37.532;2023-03-25T16:47:05;98031.34;;;9.47;81.92
75312;BME280;63906;55.686;37.532;2023-03-25T16:52:12;98019.47;;;9.26;81.53
75312;BME280;63906;55.686;37.532;2023-03-25T16:57:17;98035.94;;;9.33;81.92
75312;BME280;63906;55.686;37.532;2023-03-25T17:02:30;98040.41;;;9.33;81.97
75312;BME280;63906;55.686;37.532;2023-03-25T17:07:40;98056.00;;;9.09;82.83
75312;BME280;63906;55.686;37.532;2023-03-25T17:12:41;98071.91;;;9.33;82.31
75312;BME280;63906;55.686;37.532;2023-03-25T17:17:47;98070.59;;;9.42;81.20
75312;BME280;63906;55.686;37.532;2023-03-25T17:23:04;98097.28;;;9.57;80.88
75312;BME280;63906;55.686;37.532;2023-03-25T17:33:34;98097.72;;;9.36;81.72
75312;BME280;63906;55.686;37.532;2023-03-25T17:38:42;98070.16;;;9.08;81.43
75312;BME280;63906;55.686;37.532;2023-03-25T17:43:46;98109.31;;;9.47;81.10
75312;BME280;63906;55.686;37.532;2023-03-25T17:48:48;98072.34;;;9.30;80.42
75312;BME280;63906;55.686;37.532;2023-03-25T17:53:50;98128.94;;;9.62;80.20
75312;BME280;63906;55.686;37.532;2023-03-25T17:58:59;98124.44;;;9.51;80.98
75312;BME280;63906;55.686;37.532;2023-03-25T18:04:01;98126.38;;;9.37;80.56
75312;BME280;63906;55.686;37.532;2023-03-25T18:09:02;98122.94;;;9.18;81.57
75312;BME280;63906;55.686;37.532;2023-03-25T18:14:02;98146.09;;;9.28;81.54
75312;BME280;63906;55.686;37.532;2023-03-25T18:19:03;98125.41;;;8.95;82.00
75312;BME280;63906;55.686;37.532;2023-03-25T18:24:08;98132.41;;;9.01;82.37
75312;BME280;63906;55.686;37.532;2023-03-25T18:29:11;98153.53;;;9.06;82.29
75312;BME280;63906;55.686;37.532;2023-03-25T18:34:17;98140.38;;;9.13;82.03
75312;BME280;63906;55.686;37.532;2023-03-25T18:39:21;98141.22;;;9.32;81.43
75312;BME280;63906;55.686;37.532;2023-03-25T18:44:21;98116.16;;;9.11;81.19
75312;BME280;63906;55.686;37.532;2023-03-25T18:49:22;98134.06;;;9.21;81.29
75312;BME280;63906;55.686;37.532;2023-03-25T18:54:23;98126.44;;;9.31;80.58
75312;BME280;63906;55.686;37.532;2023-03-25T18:59:23;98121.13;;;9.19;80.25
75312;BME280;63906;55.686;37.532;2023-03-25T19:04:24;98157.25;;;9.42;80.35
75312;BME280;63906;55.686;37.532;2023-03-25T19:09:24;98146.16;;;9.40;81.07
75312;BME280;63906;55.686;37.532;2023-03-25T19:14:26;98148.50;;;9.48;80.26
75312;BME280;63906;55.686;37.532;2023-03-25T19:19:27;98135.94;;;9.50;79.49
75312;BME280;63906;55.686;37.532;2023-03-25T19:24:27;98150.91;;;9.50;80.05
75312;BME280;63906;55.686;37.532;2023-03-25T19:29:28;98117.06;;;9.41;79.94
75312;BME280;63906;55.686;37.532;2023-03-25T19:34:28;98139.59;;;9.49;79.96
75312;BME280;63906;55.686;37.532;2023-03-25T19:39:30;98146.03;;;9.53;79.59
75312;BME280;63906;55.686;37.532;2023-03-25T19:44:31;98130.91;;;9.49;80.16
75312;BME280;63906;55.686;37.532;2023-03-25T19:49:31;98151.78;;;9.43;79.99
75312;BME280;63906;55.686;37.532;2023-03-25T19:54:32;98152.88;;;9.54;79.19
75312;BME280;63906;55.686;37.532;2023-03-25T19:59:32;98133.47;;;9.37;79.10
75312;BME280;63906;55.686;37.532;2023-03-25T20:04:33;98140.91;;;9.40;78.96
75312;BME280;63906;55.686;37.532;2023-03-25T20:09:35;98154.03;;;9.22;80.16
75312;BME280;63906;55.686;37.532;2023-03-25T20:14:36;98127.88;;;8.90;80.50
75312;BME280;63906;55.686;37.532;2023-03-25T20:19:37;98160.25;;;9.02;80.93
75312;BME280;63906;55.686;37.532;2023-03-25T20:24:37;98165.50;;;9.02;80.91
75312;BME280;63906;55.686;37.532;2023-03-25T20:29:38;98168.72;;;9.04;80.82
75312;BME280;63906;55.686;37.532;2023-03-25T20:34:39;98171.13;;;9.06;81.29
75312;BME280;63906;55.686;37.532;2023-03-25T20:39:39;98148.00;;;8.96;80.38
75312;BME280;63906;55.686;37.532;2023-03-25T20:44:40;98169.41;;;8.93;81.09
75312;BME280;63906;55.686;37.532;2023-03-25T20:49:40;98170.88;;;8.89;81.40
75312;BME280;63906;55.686;37.532;2023-03-25T20:54:41;98148.06;;;8.65;81.54
75312;BME280;63906;55.686;37.532;2023-03-25T20:59:41;98169.47;;;8.61;81.83
75312;BME280;63906;55.686;37.532;2023-03-25T21:04:42;98165.88;;;8.56;82.56
75312;BME280;63906;55.686;37.532;2023-03-25T21:09:43;98141.94;;;8.46;82.40
75312;BME280;63906;55.686;37.532;2023-03-25T21:14:44;98140.97;;;8.40;82.76
75312;BME280;63906;55.686;37.532;2023-03-25T21:19:44;98161.56;;;8.36;82.38
75312;BME280;63906;55.686;37.532;2023-03-25T21:24:45;98164.38;;;8.35;82.54
75312;BME280;63906;55.686;37.532;2023-03-25T21:29:46;98148.28;;;8.25;83.32
75312;BME280;63906;55.686;37.532;2023-03-25T21:34:46;98149.88;;;8.26;83.03
75312;BME280;63906;55.686;37.532;2023-03-25T21:39:47;98124.22;;;8.03;82.92
75312;BME280;63906;55.686;37.532;2023-03-25T21:44:49;98162.22;;;8.19;83.47
75312;BME280;63906;55.686;37.532;2023-03-25T21:49:50;98169.66;;;8.28;83.10
75312;BME280;63906;55.686;37.532;2023-03-25T21:54:51;98173.69;;;8.24;83.24
75312;BME280;63906;55.686;37.532;2023-03-25T21:59:54;98174.16;;;8.15;83.41
75312;BME280;63906;55.686;37.532;2023-03-25T22:04:54;98185.06;;;8.12;83.79
75312;BME280;63906;55.686;37.532;2023-03-25T22:09:55;98180.00;;;8.17;83.51
75312;BME280;63906;55.686;37.532;2023-03-25T22:14:56;98185.78;;;8.25;83.27
75312;BME280;63906;55.686;37.532;2023-03-25T22:19:56;98187.22;;;8.21;83.62
75312;BME280;63906;55.686;37.532;2023-03-25T22:24:57;98177.97;;;8.19;82.96
75312;BME280;63906;55.686;37.532;2023-03-25T22:29:57;98176.94;;;8.20;83.57
75312;BME280;63906;55.686;37.532;2023-03-25T22:34:58;98162.91;;;8.07;83.47
75312;BME280;63906;55.686;37.532;2023-03-25T22:39:58;98156.50;;;7.97;83.80
75312;BME280;63906;55.686;37.532;2023-03-25T22:44:59;98156.47;;;8.03;83.55
75312;BME280;63906;55.686;37.532;2023-03-25T22:50:00;98161.09;;;8.08;83.70
75312;BME280;63906;55.686;37.532;2023-03-25T22:55:01;98167.09;;;8.15;83.56
75312;BME280;63906;55.686;37.532;2023-03-25T23:00:05;98163.72;;;8.08;82.78
75312;BME280;63906;55.686;37.532;2023-03-25T23:05:13;98155.28;;;7.99;83.64
75312;BME280;63906;55.686;37.532;2023-03-25T23:10:14;98150.88;;;7.93;83.34
75312;BME280;63906;55.686;37.532;2023-03-25T23:15:15;98149.34;;;7.79;82.49
75312;BME280;63906;55.686;37.532;2023-03-25T23:20:16;98140.69;;;7.78;83.67
75312;BME280;63906;55.686;37.532;2023-03-25T23:25:16;98134.63;;;7.78;83.62
75312;BME280;63906;55.686;37.532;2023-03-25T23:30:17;98139.69;;;7.73;83.29
75312;BME280;63906;55.686;37.532;2023-03-25T23:35:18;98109.53;;;7.50;83.78
75312;BME280;63906;55.686;37.532;2023-03-25T23:40:20;98133.69;;;7.66;83.48
75312;BME280;63906;55.686;37.532;2023-03-25T23:45:21;98126.03;;;7.57;83.55
75312;BME280;63906;55.686;37.532;2023-03-25T23:50:29;98145.13;;;7.78;83.80
75312;BME280;63906;55.686;37.532;2023-03-25T23:55:29;98148.13;;;7.75;82.95
